sensor_id;sensor_type;location;lat;lon;timestamp;pressure;altitude;pressure_sealevel;temperature;humidity
19526;BME280;9907;42.676;26.348;2023-09-08T00:00:47;99194.56;;;21.50;50.22
19526;BME280;9907;42.676;26.348;2023-09-08T00:03:12;99195.00;;;21.60;49.67
19526;BME280;9907;42.676;26.348;2023-09-08T00:05:38;99202.56;;;21.71;49.59
19526;BME280;9907;42.676;26.348;2023-09-08T00:08:04;99203.19;;;21.73;49.83
19526;BME280;9907;42.676;26.348;2023-09-08T00:10:29;99200.47;;;21.73;49.37
19526;BME280;9907;42.676;26.348;2023-09-08T00:12:55;99208.63;;;21.73;50.00
19526;BME280;9907;42.676;26.348;2023-09-08T00:15:20;99205.47;;;21.63;50.20
19526;BME280;9907;42.676;26.348;2023-09-08T00:17:45;99218.84;;;21.64;49.59
19526;BME280;9907;42.676;26.348;2023-09-08T00:20:12;99206.34;;;21.76;49.24
19526;BME280;9907;42.676;26.348;2023-09-08T00:22:39;99218.03;;;21.77;48.88
19526;BME280;9907;42.676;26.348;2023-09-08T00:25:05;99214.50;;;21.76;49.22
19526;BME280;9907;42.676;26.348;2023-09-08T00:27:31;99224.97;;;21.79;49.43
19526;BME280;9907;42.676;26.348;2023-09-08T00:29:57;99230.19;;;21.81;48.85
19526;BME280;9907;42.676;26.348;2023-09-08T00:32:22;99223.09;;;21.80;49.40
19526;BME280;9907;42.676;26.348;2023-09-08T00:34:48;99226.66;;;21.87;49.02
19526;BME280;9907;42.676;26.348;2023-09-08T00:37:13;99239.59;;;21.78;49.02
19526;BME280;9907;42.676;26.348;2023-09-08T00:39:39;99225.59;;;21.88;48.22
19526;BME280;9907;42.676;26.348;2023-09-08T00:42:05;99219.00;;;22.04;48.52
19526;BME280;9907;42.676;26.348;2023-09-08T00:44:32;99215.00;;;22.00;48.03
19526;BME280;9907;42.676;26.348;2023-09-08T00:46:58;99221.47;;;21.92;48.58
19526;BME280;9907;42.676;26.348;2023-09-08T00:49:23;99219.41;;;21.94;48.38
19526;BME280;9907;42.676;26.348;2023-09-08T00:52:20;99222.25;;;21.86;48.56
19526;BME280;9907;42.676;26.348;2023-09-08T00:55:11;99212.00;;;21.81;49.17
19526;BME280;9907;42.676;26.348;2023-09-08T00:57:37;99203.41;;;21.78;48.64
19526;BME280;9907;42.676;26.348;2023-09-08T01:00:03;99212.66;;;21.83;48.38
19526;BME280;9907;42.676;26.348;2023-09-08T01:02:31;99212.41;;;21.78;48.90
19526;BME280;9907;42.676;26.348;2023-09-08T01:04:58;99208.19;;;21.69;49.21
19526;BME280;9907;42.676;26.348;2023-09-08T01:07:26;99225.97;;;21.65;49.91
19526;BME280;9907;42.676;26.348;2023-09-08T01:09:54;99216.75;;;21.60;49.43
19526;BME280;9907;42.676;26.348;2023-09-08T01:12:19;99226.50;;;21.48;50.42
19526;BME280;9907;42.676;26.348;2023-09-08T01:14:45;99228.63;;;21.52;49.96
19526;BME280;9907;42.676;26.348;2023-09-08T01:17:10;99226.16;;;21.64;48.95
19526;BME280;9907;42.676;26.348;2023-09-08T01:19:38;99225.75;;;21.67;49.23
19526;BME280;9907;42.676;26.348;2023-09-08T01:25:01;99219.47;;;21.60;50.26
19526;BME280;9907;42.676;26.348;2023-09-08T01:27:32;99233.06;;;21.60;49.81
19526;BME280;9907;42.676;26.348;2023-09-08T01:29:59;99220.66;;;21.51;50.28
19526;BME280;9907;42.676;26.348;2023-09-08T01:32:28;99220.47;;;21.46;nan
19526;BME280;9907;42.676;26.348;2023-09-08T01:34:56;99225.03;;;21.39;50.88
19526;BME280;9907;42.676;26.348;2023-09-08T01:37:23;99220.78;;;21.29;50.80
19526;BME280;9907;42.676;26.348;2023-09-08T01:39:48;99224.16;;;21.31;50.94
19526;BME280;9907;42.676;26.348;2023-09-08T01:42:14;99213.47;;;21.30;51.19
19526;BME280;9907;42.676;26.348;2023-09-08T01:44:39;99220.75;;;21.23;51.42
19526;BME280;9907;42.676;26.348;2023-09-08T01:47:05;99222.16;;;21.12;51.54
19526;BME280;9907;42.676;26.348;2023-09-08T01:49:30;99207.16;;;21.16;51.82
19526;BME280;9907;42.676;26.348;2023-09-08T01:51:56;99203.78;;;21.14;51.75
19526;BME280;9907;42.676;26.348;2023-09-08T01:54:21;99205.28;;;21.17;51.54
19526;BME280;9907;42.676;26.348;2023-09-08T01:56:47;99201.81;;;21.02;52.07
19526;BME280;9907;42.676;26.348;2023-09-08T01:59:15;99204.97;;;21.05;52.32
19526;BME280;9907;42.676;26.348;2023-09-08T02:01:41;99211.03;;;21.07;52.09
19526;BME280;9907;42.676;26.348;2023-09-08T02:04:06;99204.72;;;21.00;51.79
19526;BME280;9907;42.676;26.348;2023-09-08T02:06:32;99205.31;;;20.96;52.39
19526;BME280;9907;42.676;26.348;2023-09-08T02:09:00;99206.28;;;20.81;52.86
19526;BME280;9907;42.676;26.348;2023-09-08T02:11:26;99203.38;;;20.83;52.79
19526;BME280;9907;42.676;26.348;2023-09-08T02:13:52;99202.50;;;20.76;53.34
19526;BME280;9907;42.676;26.348;2023-09-08T02:16:17;99209.00;;;20.54;53.67
19526;BME280;9907;42.676;26.348;2023-09-08T02:18:44;99203.88;;;20.65;53.40
19526;BME280;9907;42.676;26.348;2023-09-08T02:21:10;99206.50;;;20.80;52.47
19526;BME280;9907;42.676;26.348;2023-09-08T02:23:35;99206.31;;;20.88;53.02
19526;BME280;9907;42.676;26.348;2023-09-08T02:26:01;99204.09;;;20.70;52.98
19526;BME280;9907;42.676;26.348;2023-09-08T02:28:27;99201.69;;;20.82;53.04
19526;BME280;9907;42.676;26.348;2023-09-08T02:30:52;99202.50;;;20.76;53.02
19526;BME280;9907;42.676;26.348;2023-09-08T02:33:18;99197.84;;;20.70;53.24
19526;BME280;9907;42.676;26.348;2023-09-08T02:35:43;99198.19;;;20.60;53.64
19526;BME280;9907;42.676;26.348;2023-09-08T02:38:08;99200.19;;;20.52;53.98
19526;BME280;9907;42.676;26.348;2023-09-08T02:40:34;99206.81;;;20.43;54.26
19526;BME280;9907;42.676;26.348;2023-09-08T02:43:03;99210.00;;;20.46;54.36
19526;BME280;9907;42.676;26.348;2023-09-08T02:45:29;99197.50;;;20.52;54.14
19526;BME280;9907;42.676;26.348;2023-09-08T02:47:55;99198.56;;;20.51;53.86
19526;BME280;9907;42.676;26.348;2023-09-08T02:50:21;99200.47;;;20.57;54.01
19526;BME280;9907;42.676;26.348;2023-09-08T02:52:47;99197.72;;;20.50;54.06
19526;BME280;9907;42.676;26.348;2023-09-08T02:55:12;99193.50;;;20.48;54.41
19526;BME280;9907;42.676;26.348;2023-09-08T02:57:39;99186.63;;;20.52;54.28
19526;BME280;9907;42.676;26.348;2023-09-08T03:00:05;99185.78;;;20.51;54.15
19526;BME280;9907;42.676;26.348;2023-09-08T03:02:33;99183.94;;;20.52;53.86
19526;BME280;9907;42.676;26.348;2023-09-08T03:04:58;99182.28;;;20.51;54.43
19526;BME280;9907;42.676;26.348;2023-09-08T03:07:24;99182.91;;;20.53;54.66
19526;BME280;9907;42.676;26.348;2023-09-08T03:09:49;99184.53;;;20.47;54.85
19526;BME280;9907;42.676;26.348;2023-09-08T03:12:15;99181.22;;;20.52;54.65
19526;BME280;9907;42.676;26.348;2023-09-08T03:14:40;99186.44;;;20.53;54.61
19526;BME280;9907;42.676;26.348;2023-09-08T03:17:06;99188.94;;;20.55;54.44
19526;BME280;9907;42.676;26.348;2023-09-08T03:19:33;99193.56;;;20.54;55.08
19526;BME280;9907;42.676;26.348;2023-09-08T03:21:59;99188.13;;;20.54;55.12
19526;BME280;9907;42.676;26.348;2023-09-08T03:24:24;99197.19;;;20.40;55.60
19526;BME280;9907;42.676;26.348;2023-09-08T03:26:56;99189.97;;;20.47;54.83
19526;BME280;9907;42.676;26.348;2023-09-08T03:29:23;99193.94;;;20.51;55.34
19526;BME280;9907;42.676;26.348;2023-09-08T03:31:48;99188.50;;;20.51;55.27
19526;BME280;9907;42.676;26.348;2023-09-08T03:34:14;99184.31;;;20.49;55.45
19526;BME280;9907;42.676;26.348;2023-09-08T03:36:39;99189.97;;;20.47;55.93
19526;BME280;9907;42.676;26.348;2023-09-08T03:39:05;99190.41;;;20.51;55.39
19526;BME280;9907;42.676;26.348;2023-09-08T03:41:30;99190.91;;;20.61;55.95
19526;BME280;9907;42.676;26.348;2023-09-08T03:43:56;99196.53;;;20.66;55.02
19526;BME280;9907;42.676;26.348;2023-09-08T03:46:21;99197.22;;;20.68;55.32
19526;BME280;9907;42.676;26.348;2023-09-08T03:48:47;99190.81;;;20.82;55.41
19526;BME280;9907;42.676;26.348;2023-09-08T03:51:13;99200.38;;;21.06;54.37
19526;BME280;9907;42.676;26.348;2023-09-08T03:53:38;99198.44;;;21.00;54.73
19526;BME280;9907;42.676;26.348;2023-09-08T03:56:03;99204.28;;;20.97;54.89
19526;BME280;9907;42.676;26.348;2023-09-08T03:58:29;99197.97;;;20.89;55.77
19526;BME280;9907;42.676;26.348;2023-09-08T04:00:54;99199.25;;;20.94;54.99
19526;BME280;9907;42.676;26.348;2023-09-08T04:03:20;99201.16;;;21.00;54.90
19526;BME280;9907;42.676;26.348;2023-09-08T04:05:45;99192.28;;;21.12;54.80
19526;BME280;9907;42.676;26.348;2023-09-08T04:08:11;99210.28;;;21.13;54.92
19526;BME280;9907;42.676;26.348;2023-09-08T04:10:37;99206.91;;;21.11;55.03
19526;BME280;9907;42.676;26.348;2023-09-08T04:13:02;99196.69;;;21.13;55.24
19526;BME280;9907;42.676;26.348;2023-09-08T04:15:28;99198.78;;;21.18;54.70
19526;BME280;9907;42.676;26.348;2023-09-08T04:17:53;99194.06;;;21.40;54.40
19526;BME280;9907;42.676;26.348;2023-09-08T04:20:19;99206.47;;;21.49;54.03
19526;BME280;9907;42.676;26.348;2023-09-08T04:22:44;99205.88;;;21.60;54.25
19526;BME280;9907;42.676;26.348;2023-09-08T04:25:11;99207.75;;;21.66;53.72
19526;BME280;9907;42.676;26.348;2023-09-08T04:27:37;99193.38;;;21.78;53.13
19526;BME280;9907;42.676;26.348;2023-09-08T04:30:04;99204.50;;;21.90;53.58
19526;BME280;9907;42.676;26.348;2023-09-08T04:32:29;99197.22;;;22.10;52.29
19526;BME280;9907;42.676;26.348;2023-09-08T04:34:55;99204.34;;;22.11;52.58
19526;BME280;9907;42.676;26.348;2023-09-08T04:37:20;99208.75;;;22.25;52.83
19526;BME280;9907;42.676;26.348;2023-09-08T04:39:46;99209.19;;;22.55;51.75
19526;BME280;9907;42.676;26.348;2023-09-08T04:42:14;99210.44;;;22.59;51.82
19526;BME280;9907;42.676;26.348;2023-09-08T04:44:40;99196.00;;;22.85;50.67
19526;BME280;9907;42.676;26.348;2023-09-08T04:47:05;99207.31;;;22.82;51.12
19526;BME280;9907;42.676;26.348;2023-09-08T04:49:31;99214.84;;;22.93;50.57
19526;BME280;9907;42.676;26.348;2023-09-08T04:51:56;99204.50;;;23.21;49.96
19526;BME280;9907;42.676;26.348;2023-09-08T04:54:22;99204.75;;;23.07;50.33
19526;BME280;9907;42.676;26.348;2023-09-08T04:56:51;99195.22;;;23.36;49.81
19526;BME280;9907;42.676;26.348;2023-09-08T04:59:17;99200.19;;;23.58;49.02
19526;BME280;9907;42.676;26.348;2023-09-08T05:01:43;99207.94;;;23.61;49.04
19526;BME280;9907;42.676;26.348;2023-09-08T05:04:09;99204.50;;;23.79;48.44
19526;BME280;9907;42.676;26.348;2023-09-08T05:06:35;99197.97;;;23.87;48.68
19526;BME280;9907;42.676;26.348;2023-09-08T05:09:01;99192.13;;;23.83;48.55
19526;BME280;9907;42.676;26.348;2023-09-08T05:11:27;99202.13;;;24.27;47.25
19526;BME280;9907;42.676;26.348;2023-09-08T05:13:52;99211.38;;;24.26;47.02
19526;BME280;9907;42.676;26.348;2023-09-08T05:16:18;99201.88;;;24.29;47.04
19526;BME280;9907;42.676;26.348;2023-09-08T05:18:51;99226.13;;;24.43;46.65
19526;BME280;9907;42.676;26.348;2023-09-08T05:21:16;99208.03;;;24.49;46.40
19526;BME280;9907;42.676;26.348;2023-09-08T05:23:42;99201.84;;;24.60;46.10
19526;BME280;9907;42.676;26.348;2023-09-08T05:26:07;99204.47;;;24.48;46.49
19526;BME280;9907;42.676;26.348;2023-09-08T05:28:47;99202.72;;;24.54;46.81
19526;BME280;9907;42.676;26.348;2023-09-08T05:31:16;99203.84;;;24.71;46.02
19526;BME280;9907;42.676;26.348;2023-09-08T05:33:41;99196.09;;;24.93;46.29
19526;BME280;9907;42.676;26.348;2023-09-08T05:36:07;99201.66;;;25.04;46.10
19526;BME280;9907;42.676;26.348;2023-09-08T05:38:32;99192.72;;;25.15;45.39
19526;BME280;9907;42.676;26.348;2023-09-08T05:40:58;99193.94;;;25.19;45.92
19526;BME280;9907;42.676;26.348;2023-09-08T05:43:25;99199.78;;;25.23;45.78
19526;BME280;9907;42.676;26.348;2023-09-08T05:45:50;99197.56;;;25.13;45.38
19526;BME280;9907;42.676;26.348;2023-09-08T05:48:16;99223.47;;;25.29;45.36
19526;BME280;9907;42.676;26.348;2023-09-08T05:50:41;99204.88;;;25.38;45.15
19526;BME280;9907;42.676;26.348;2023-09-08T05:53:07;99217.91;;;25.36;45.44
19526;BME280;9907;42.676;26.348;2023-09-08T05:55:32;99206.94;;;25.60;45.10
19526;BME280;9907;42.676;26.348;2023-09-08T05:57:58;99232.81;;;25.58;45.24
19526;BME280;9907;42.676;26.348;2023-09-08T06:00:24;99208.53;;;25.68;45.32
19526;BME280;9907;42.676;26.348;2023-09-08T06:02:51;99220.28;;;25.87;45.07
19526;BME280;9907;42.676;26.348;2023-09-08T06:05:17;99213.38;;;25.96;43.85
19526;BME280;9907;42.676;26.348;2023-09-08T06:07:46;99216.69;;;25.86;44.92
19526;BME280;9907;42.676;26.348;2023-09-08T06:10:12;99212.44;;;25.90;44.07
19526;BME280;9907;42.676;26.348;2023-09-08T06:12:37;99229.66;;;25.91;44.76
19526;BME280;9907;42.676;26.348;2023-09-08T06:15:28;99253.09;;;25.87;44.65
19526;BME280;9907;42.676;26.348;2023-09-08T06:18:00;99226.91;;;25.91;44.36
19526;BME280;9907;42.676;26.348;2023-09-08T06:20:25;99232.31;;;25.97;44.02
19526;BME280;9907;42.676;26.348;2023-09-08T06:22:52;99234.09;;;26.22;43.72
19526;BME280;9907;42.676;26.348;2023-09-08T06:25:17;99235.19;;;26.32;44.05
19526;BME280;9907;42.676;26.348;2023-09-08T06:27:43;99234.97;;;26.34;43.46
19526;BME280;9907;42.676;26.348;2023-09-08T06:30:11;99232.63;;;26.49;43.47
19526;BME280;9907;42.676;26.348;2023-09-08T06:32:39;99225.00;;;26.51;43.51
19526;BME280;9907;42.676;26.348;2023-09-08T06:35:06;99223.97;;;26.75;43.32
19526;BME280;9907;42.676;26.348;2023-09-08T06:38:01;99230.16;;;26.82;42.99
19526;BME280;9907;42.676;26.348;2023-09-08T06:40:30;99225.50;;;26.71;42.95
19526;BME280;9907;42.676;26.348;2023-09-08T06:42:55;99228.94;;;26.55;43.64
19526;BME280;9907;42.676;26.348;2023-09-08T06:45:22;99225.56;;;26.83;43.00
19526;BME280;9907;42.676;26.348;2023-09-08T06:47:47;99219.25;;;26.94;42.69
19526;BME280;9907;42.676;26.348;2023-09-08T06:50:15;99223.50;;;27.13;42.27
19526;BME280;9907;42.676;26.348;2023-09-08T06:52:40;99238.31;;;27.12;42.64
19526;BME280;9907;42.676;26.348;2023-09-08T06:55:07;99225.06;;;27.09;42.28
19526;BME280;9907;42.676;26.348;2023-09-08T06:57:32;99219.91;;;27.24;42.56
19526;BME280;9907;42.676;26.348;2023-09-08T06:59:58;99234.22;;;27.38;42.17
19526;BME280;9907;42.676;26.348;2023-09-08T07:02:23;99233.38;;;27.37;41.73
19526;BME280;9907;42.676;26.348;2023-09-08T07:04:49;99233.63;;;27.36;41.46
19526;BME280;9907;42.676;26.348;2023-09-08T07:07:20;99244.97;;;27.04;42.54
19526;BME280;9907;42.676;26.348;2023-09-08T07:09:58;99221.97;;;27.05;42.77
19526;BME280;9907;42.676;26.348;2023-09-08T07:12:23;99246.13;;;27.32;41.76
19526;BME280;9907;42.676;26.348;2023-09-08T07:14:49;99248.03;;;27.43;41.71
19526;BME280;9907;42.676;26.348;2023-09-08T07:17:15;99228.63;;;27.21;41.94
19526;BME280;9907;42.676;26.348;2023-09-08T07:19:41;99231.38;;;27.33;42.20
19526;BME280;9907;42.676;26.348;2023-09-08T07:22:06;99229.09;;;27.41;41.52
19526;BME280;9907;42.676;26.348;2023-09-08T07:24:32;99249.47;;;27.57;40.87
19526;BME280;9907;42.676;26.348;2023-09-08T07:26:57;99242.09;;;27.46;42.22
19526;BME280;9907;42.676;26.348;2023-09-08T07:29:22;99237.03;;;27.78;41.80
19526;BME280;9907;42.676;26.348;2023-09-08T07:31:48;99231.91;;;27.70;41.17
19526;BME280;9907;42.676;26.348;2023-09-08T07:34:13;99228.25;;;27.64;42.05
19526;BME280;9907;42.676;26.348;2023-09-08T07:36:39;99231.50;;;27.89;41.22
19526;BME280;9907;42.676;26.348;2023-09-08T07:39:05;99229.75;;;28.12;41.67
19526;BME280;9907;42.676;26.348;2023-09-08T07:41:30;99233.91;;;28.14;41.45
19526;BME280;9907;42.676;26.348;2023-09-08T07:43:56;99237.94;;;28.23;41.14
19526;BME280;9907;42.676;26.348;2023-09-08T07:46:21;99232.97;;;28.09;41.08
19526;BME280;9907;42.676;26.348;2023-09-08T07:48:47;99230.88;;;28.44;40.70
19526;BME280;9907;42.676;26.348;2023-09-08T07:51:12;99229.16;;;28.38;41.72
19526;BME280;9907;42.676;26.348;2023-09-08T07:53:38;99228.47;;;28.47;41.50
19526;BME280;9907;42.676;26.348;2023-09-08T07:56:04;99229.16;;;28.38;40.11
19526;BME280;9907;42.676;26.348;2023-09-08T07:58:30;99242.59;;;28.23;39.72
19526;BME280;9907;42.676;26.348;2023-09-08T08:00:55;99229.47;;;28.41;39.58
19526;BME280;9907;42.676;26.348;2023-09-08T08:03:23;99220.72;;;28.61;39.65
19526;BME280;9907;42.676;26.348;2023-09-08T08:05:49;99247.75;;;28.81;39.41
19526;BME280;9907;42.676;26.348;2023-09-08T08:08:18;99233.50;;;29.00;38.50
19526;BME280;9907;42.676;26.348;2023-09-08T08:10:43;99236.69;;;28.92;38.49
19526;BME280;9907;42.676;26.348;2023-09-08T08:13:09;99235.94;;;28.80;38.25
19526;BME280;9907;42.676;26.348;2023-09-08T08:15:40;99240.91;;;28.67;38.00
19526;BME280;9907;42.676;26.348;2023-09-08T08:18:08;99261.28;;;28.54;37.95
19526;BME280;9907;42.676;26.348;2023-09-08T08:20:37;99251.22;;;28.60;38.62
19526;BME280;9907;42.676;26.348;2023-09-08T08:23:04;99232.41;;;28.51;39.20
19526;BME280;9907;42.676;26.348;2023-09-08T08:25:30;99240.94;;;28.38;39.05
19526;BME280;9907;42.676;26.348;2023-09-08T08:27:56;99224.88;;;28.47;38.79
19526;BME280;9907;42.676;26.348;2023-09-08T08:30:24;99234.31;;;28.51;38.53
19526;BME280;9907;42.676;26.348;2023-09-08T08:32:49;99237.72;;;28.41;38.71
19526;BME280;9907;42.676;26.348;2023-09-08T08:35:17;99229.38;;;28.53;39.00
19526;BME280;9907;42.676;26.348;2023-09-08T08:37:42;99228.81;;;28.51;38.11
19526;BME280;9907;42.676;26.348;2023-09-08T08:40:09;99233.47;;;28.34;38.31
19526;BME280;9907;42.676;26.348;2023-09-08T08:42:41;99237.34;;;28.21;39.68
19526;BME280;9907;42.676;26.348;2023-09-08T08:45:07;99231.19;;;28.31;39.08
19526;BME280;9907;42.676;26.348;2023-09-08T08:47:34;99224.22;;;28.23;39.51
19526;BME280;9907;42.676;26.348;2023-09-08T08:50:05;99234.09;;;27.96;39.52
19526;BME280;9907;42.676;26.348;2023-09-08T08:55:32;99212.63;;;28.21;39.75
19526;BME280;9907;42.676;26.348;2023-09-08T08:58:09;99226.28;;;28.33;39.04
19526;BME280;9907;42.676;26.348;2023-09-08T09:00:57;99224.97;;;28.35;39.77
19526;BME280;9907;42.676;26.348;2023-09-08T09:03:42;99214.06;;;28.40;39.57
19526;BME280;9907;42.676;26.348;2023-09-08T09:06:20;99216.03;;;28.28;40.07
19526;BME280;9907;42.676;26.348;2023-09-08T09:12:06;99212.84;;;28.20;39.95
19526;BME280;9907;42.676;26.348;2023-09-08T09:14:33;99208.53;;;27.95;40.82
19526;BME280;9907;42.676;26.348;2023-09-08T09:16:59;99209.19;;;28.14;40.96
19526;BME280;9907;42.676;26.348;2023-09-08T09:19:27;99209.72;;;27.99;40.37
19526;BME280;9907;42.676;26.348;2023-09-08T09:21:55;99205.28;;;28.10;40.34
19526;BME280;9907;42.676;26.348;2023-09-08T09:24:40;99219.69;;;27.89;40.18
19526;BME280;9907;42.676;26.348;2023-09-08T09:27:10;99221.03;;;27.75;41.04
19526;BME280;9907;42.676;26.348;2023-09-08T09:29:46;99223.22;;;27.61;40.88
19526;BME280;9907;42.676;26.348;2023-09-08T09:32:32;99216.53;;;27.57;41.38
19526;BME280;9907;42.676;26.348;2023-09-08T09:35:01;99206.75;;;27.61;40.79
19526;BME280;9907;42.676;26.348;2023-09-08T09:37:29;99211.94;;;27.86;41.09
19526;BME280;9907;42.676;26.348;2023-09-08T09:39:55;99217.47;;;27.74;39.58
19526;BME280;9907;42.676;26.348;2023-09-08T09:42:24;99210.00;;;27.46;39.78
19526;BME280;9907;42.676;26.348;2023-09-08T09:44:51;99237.78;;;27.62;39.92
19526;BME280;9907;42.676;26.348;2023-09-08T09:47:17;99211.59;;;27.82;39.04
19526;BME280;9907;42.676;26.348;2023-09-08T09:49:47;99209.91;;;27.53;39.40
19526;BME280;9907;42.676;26.348;2023-09-08T09:52:14;99216.66;;;27.62;40.58
19526;BME280;9907;42.676;26.348;2023-09-08T09:54:43;99204.13;;;27.66;40.24
19526;BME280;9907;42.676;26.348;2023-09-08T09:57:15;99206.75;;;27.61;40.78
19526;BME280;9907;42.676;26.348;2023-09-08T09:59:42;99198.09;;;27.52;40.99
19526;BME280;9907;42.676;26.348;2023-09-08T10:02:12;99211.19;;;27.39;41.64
19526;BME280;9907;42.676;26.348;2023-09-08T10:04:41;99201.91;;;27.28;41.40
19526;BME280;9907;42.676;26.348;2023-09-08T10:07:08;99216.81;;;27.21;41.06
19526;BME280;9907;42.676;26.348;2023-09-08T10:09:36;99209.56;;;27.15;40.81
19526;BME280;9907;42.676;26.348;2023-09-08T10:12:05;99222.22;;;27.16;41.22
19526;BME280;9907;42.676;26.348;2023-09-08T10:14:35;99202.59;;;27.35;40.41
19526;BME280;9907;42.676;26.348;2023-09-08T10:17:02;99200.94;;;27.46;40.85
19526;BME280;9907;42.676;26.348;2023-09-08T10:19:28;99194.50;;;27.40;40.73
19526;BME280;9907;42.676;26.348;2023-09-08T10:21:55;99201.91;;;27.51;40.44
19526;BME280;9907;42.676;26.348;2023-09-08T10:24:27;99197.75;;;27.49;39.98
19526;BME280;9907;42.676;26.348;2023-09-08T10:29:30;99205.50;;;27.29;40.42
19526;BME280;9907;42.676;26.348;2023-09-08T10:31:56;99201.06;;;27.28;40.00
19526;BME280;9907;42.676;26.348;2023-09-08T10:34:24;99196.44;;;27.28;40.40
19526;BME280;9907;42.676;26.348;2023-09-08T10:36:50;99200.47;;;27.37;40.82
19526;BME280;9907;42.676;26.348;2023-09-08T10:39:36;99185.22;;;27.41;41.15
19526;BME280;9907;42.676;26.348;2023-09-08T10:44:43;99201.19;;;27.33;40.54
19526;BME280;9907;42.676;26.348;2023-09-08T10:47:09;99193.94;;;27.27;39.89
19526;BME280;9907;42.676;26.348;2023-09-08T10:49:35;99186.06;;;27.30;39.85
19526;BME280;9907;42.676;26.348;2023-09-08T10:52:12;99193.16;;;27.43;40.76
19526;BME280;9907;42.676;26.348;2023-09-08T10:57:13;99184.84;;;27.38;42.39
19526;BME280;9907;42.676;26.348;2023-09-08T10:59:39;99173.53;;;27.34;42.07
19526;BME280;9907;42.676;26.348;2023-09-08T11:02:04;99172.81;;;27.27;42.20
19526;BME280;9907;42.676;26.348;2023-09-08T11:04:30;99186.66;;;27.09;43.74
19526;BME280;9907;42.676;26.348;2023-09-08T11:06:58;99178.84;;;27.01;43.36
19526;BME280;9907;42.676;26.348;2023-09-08T11:09:25;99190.16;;;26.93;44.53
19526;BME280;9907;42.676;26.348;2023-09-08T11:11:51;99180.50;;;26.90;44.64
19526;BME280;9907;42.676;26.348;2023-09-08T11:14:16;99183.22;;;26.90;44.67
19526;BME280;9907;42.676;26.348;2023-09-08T11:16:43;99187.50;;;26.75;44.59
19526;BME280;9907;42.676;26.348;2023-09-08T11:19:09;99179.50;;;26.61;44.35
19526;BME280;9907;42.676;26.348;2023-09-08T11:21:35;99177.25;;;26.58;44.67
19526;BME280;9907;42.676;26.348;2023-09-08T11:24:04;99168.31;;;26.51;44.17
19526;BME280;9907;42.676;26.348;2023-09-08T11:26:33;99170.44;;;26.61;44.31
19526;BME280;9907;42.676;26.348;2023-09-08T11:28:59;99167.84;;;26.66;45.22
19526;BME280;9907;42.676;26.348;2023-09-08T11:31:25;99170.81;;;26.76;44.75
19526;BME280;9907;42.676;26.348;2023-09-08T11:33:54;99166.09;;;26.83;45.23
19526;BME280;9907;42.676;26.348;2023-09-08T11:36:20;99167.97;;;26.71;45.51
19526;BME280;9907;42.676;26.348;2023-09-08T11:38:45;99168.06;;;26.76;45.53
19526;BME280;9907;42.676;26.348;2023-09-08T11:41:11;99162.84;;;26.75;45.72
19526;BME280;9907;42.676;26.348;2023-09-08T11:43:37;99145.56;;;26.74;44.67
19526;BME280;9907;42.676;26.348;2023-09-08T11:46:03;99160.47;;;26.67;45.44
19526;BME280;9907;42.676;26.348;2023-09-08T11:48:28;99150.34;;;26.67;44.84
19526;BME280;9907;42.676;26.348;2023-09-08T11:50:57;99155.94;;;26.60;44.94
19526;BME280;9907;42.676;26.348;2023-09-08T11:53:24;99160.31;;;26.50;45.64
19526;BME280;9907;42.676;26.348;2023-09-08T11:55:50;99141.75;;;26.52;45.47
19526;BME280;9907;42.676;26.348;2023-09-08T11:58:24;99150.56;;;26.54;44.60
19526;BME280;9907;42.676;26.348;2023-09-08T12:00:50;99141.63;;;26.58;45.39
19526;BME280;9907;42.676;26.348;2023-09-08T12:03:16;99135.44;;;26.63;45.47
19526;BME280;9907;42.676;26.348;2023-09-08T12:05:44;99124.72;;;26.61;44.98
19526;BME280;9907;42.676;26.348;2023-09-08T12:08:10;99130.06;;;26.68;44.79
19526;BME280;9907;42.676;26.348;2023-09-08T12:10:42;99132.09;;;26.73;44.59
19526;BME280;9907;42.676;26.348;2023-09-08T12:13:08;99129.00;;;26.69;45.19
19526;BME280;9907;42.676;26.348;2023-09-08T12:18:08;99128.06;;;26.63;43.49
19526;BME280;9907;42.676;26.348;2023-09-08T12:20:35;99137.59;;;26.73;41.33
19526;BME280;9907;42.676;26.348;2023-09-08T12:23:04;99144.50;;;26.75;39.15
19526;BME280;9907;42.676;26.348;2023-09-08T12:25:30;99133.28;;;26.65;41.32
19526;BME280;9907;42.676;26.348;2023-09-08T12:28:00;99130.56;;;26.65;43.50
19526;BME280;9907;42.676;26.348;2023-09-08T12:30:27;99130.91;;;26.69;44.64
19526;BME280;9907;42.676;26.348;2023-09-08T12:33:00;99129.63;;;26.71;44.84
19526;BME280;9907;42.676;26.348;2023-09-08T12:35:26;99122.09;;;26.78;44.25
19526;BME280;9907;42.676;26.348;2023-09-08T12:38:02;99114.38;;;26.75;45.11
19526;BME280;9907;42.676;26.348;2023-09-08T12:40:29;99124.97;;;26.60;46.36
19526;BME280;9907;42.676;26.348;2023-09-08T12:42:56;99133.91;;;26.44;47.41
19526;BME280;9907;42.676;26.348;2023-09-08T12:45:23;99129.03;;;26.34;47.49
19526;BME280;9907;42.676;26.348;2023-09-08T12:47:49;99129.13;;;26.39;48.35
19526;BME280;9907;42.676;26.348;2023-09-08T12:50:14;99144.59;;;26.34;49.93
19526;BME280;9907;42.676;26.348;2023-09-08T12:52:40;99148.00;;;26.17;49.21
19526;BME280;9907;42.676;26.348;2023-09-08T12:55:07;99149.03;;;25.93;48.83
19526;BME280;9907;42.676;26.348;2023-09-08T12:57:32;99145.44;;;25.93;47.97
19526;BME280;9907;42.676;26.348;2023-09-08T12:59:58;99143.41;;;25.88;48.17
19526;BME280;9907;42.676;26.348;2023-09-08T13:02:23;99147.66;;;25.84;48.19
19526;BME280;9907;42.676;26.348;2023-09-08T13:04:49;99146.03;;;25.95;48.93
19526;BME280;9907;42.676;26.348;2023-09-08T13:07:18;99142.97;;;26.03;48.29
19526;BME280;9907;42.676;26.348;2023-09-08T13:09:44;99148.97;;;25.82;49.16
19526;BME280;9907;42.676;26.348;2023-09-08T13:12:10;99149.56;;;25.54;50.02
19526;BME280;9907;42.676;26.348;2023-09-08T13:14:36;99132.56;;;25.52;49.99
19526;BME280;9907;42.676;26.348;2023-09-08T13:17:02;99165.66;;;25.44;49.61
19526;BME280;9907;42.676;26.348;2023-09-08T13:19:27;99149.03;;;25.45;49.66